sensor_id;sensor_type;location;lat;lon;timestamp;P1;durP1;ratioP1;P2;durP2;ratioP2
41261;SDS011;29629;52.532;13.352;2023-01-15T00:01:36;105.72;;;58.03;;
41261;SDS011;29629;52.532;13.352;2023-01-15T00:04:04;113.63;;;61.42;;
41261;SDS011;29629;52.532;13.352;2023-01-15T00:06:34;106.55;;;59.30;;
41261;SDS011;29629;52.532;13.352;2023-01-15T00:09:02;102.38;;;57.15;;
41261;SDS011;29629;52.532;13.352;2023-01-15T00:11:29;96.22;;;54.65;;
41261;SDS011;29629;52.532;13.352;2023-01-15T00:13:56;102.03;;;57.88;;
41261;SDS011;29629;52.532;13.352;2023-01-15T00:16:24;92.60;;;52.58;;
41261;SDS011;29629;52.532;13.352;2023-01-15T00:18:53;98.85;;;54.45;;
41261;SDS011;29629;52.532;13.352;2023-01-15T00:21:25;102.80;;;57.63;;
41261;SDS011;29629;52.532;13.352;2023-01-15T00:23:53;90.47;;;51.35;;
41261;SDS011;29629;52.532;13.352;2023-01-15T00:26:38;108.32;;;59.33;;
41261;SDS011;29629;52.532;13.352;2023-01-15T00:29:23;99.55;;;54.05;;
41261;SDS011;29629;52.532;13.352;2023-01-15T00:31:52;106.25;;;56.00;;
41261;SDS011;29629;52.532;13.352;2023-01-15T00:34:22;103.78;;;53.35;;
41261;SDS011;29629;52.532;13.352;2023-01-15T00:36:50;84.78;;;50.67;;
41261;SDS011;29629;52.532;13.352;2023-01-15T00:39:17;108.53;;;56.42;;
41261;SDS011;29629;52.532;13.352;2023-01-15T00:41:44;103.53;;;56.90;;
41261;SDS011;29629;52.532;13.352;2023-01-15T00:44:11;95.50;;;53.17;;
41261;SDS011;29629;52.532;13.352;2023-01-15T00:46:38;87.15;;;51.10;;
41261;SDS011;29629;52.532;13.352;2023-01-15T00:49:05;102.35;;;54.22;;
41261;SDS011;29629;52.532;13.352;2023-01-15T00:51:33;103.35;;;56.08;;
41261;SDS011;29629;52.532;13.352;2023-01-15T00:54:01;94.82;;;52.28;;
41261;SDS011;29629;52.532;13.352;2023-01-15T00:56:28;99.75;;;55.22;;
41261;SDS011;29629;52.532;13.352;2023-01-15T00:58:55;97.97;;;55.72;;
41261;SDS011;29629;52.532;13.352;2023-01-15T01:01:22;103.40;;;56.10;;
41261;SDS011;29629;52.532;13.352;2023-01-15T01:03:49;97.13;;;54.05;;
41261;SDS011;29629;52.532;13.352;2023-01-15T01:06:17;94.88;;;53.03;;
41261;SDS011;29629;52.532;13.352;2023-01-15T01:08:46;103.32;;;57.25;;
41261;SDS011;29629;52.532;13.352;2023-01-15T01:11:14;102.90;;;56.30;;
41261;SDS011;29629;52.532;13.352;2023-01-15T01:13:43;104.20;;;57.38;;
41261;SDS011;29629;52.532;13.352;2023-01-15T01:16:20;93.15;;;52.63;;
41261;SDS011;29629;52.532;13.352;2023-01-15T01:18:49;95.18;;;54.15;;
41261;SDS011;29629;52.532;13.352;2023-01-15T01:21:16;93.25;;;52.50;;
41261;SDS011;29629;52.532;13.352;2023-01-15T01:23:43;95.50;;;53.92;;
41261;SDS011;29629;52.532;13.352;2023-01-15T01:26:11;96.53;;;54.55;;
41261;SDS011;29629;52.532;13.352;2023-01-15T01:28:39;108.38;;;54.85;;
41261;SDS011;29629;52.532;13.352;2023-01-15T01:31:06;95.05;;;54.20;;
41261;SDS011;29629;52.532;13.352;2023-01-15T01:33:33;93.03;;;52.78;;
41261;SDS011;29629;52.532;13.352;2023-01-15T01:36:01;91.13;;;52.05;;
41261;SDS011;29629;52.532;13.352;2023-01-15T01:38:28;103.63;;;52.20;;
41261;SDS011;29629;52.532;13.352;2023-01-15T01:40:56;90.43;;;52.00;;
41261;SDS011;29629;52.532;13.352;2023-01-15T01:43:24;95.82;;;53.05;;
41261;SDS011;29629;52.532;13.352;2023-01-15T01:45:52;77.88;;;48.58;;
41261;SDS011;29629;52.532;13.352;2023-01-15T01:48:20;94.90;;;51.22;;
41261;SDS011;29629;52.532;13.352;2023-01-15T01:50:52;91.20;;;51.38;;
41261;SDS011;29629;52.532;13.352;2023-01-15T01:53:22;108.32;;;56.17;;
41261;SDS011;29629;52.532;13.352;2023-01-15T01:55:52;94.72;;;52.53;;
41261;SDS011;29629;52.532;13.352;2023-01-15T01:58:20;87.82;;;49.17;;
41261;SDS011;29629;52.532;13.352;2023-01-15T02:00:51;91.65;;;51.58;;
41261;SDS011;29629;52.532;13.352;2023-01-15T02:03:19;94.97;;;53.50;;
41261;SDS011;29629;52.532;13.352;2023-01-15T02:05:49;88.38;;;51.78;;
41261;SDS011;29629;52.532;13.352;2023-01-15T02:08:19;99.60;;;53.22;;
41261;SDS011;29629;52.532;13.352;2023-01-15T02:10:48;96.75;;;53.70;;
41261;SDS011;29629;52.532;13.352;2023-01-15T02:13:19;105.10;;;55.05;;
41261;SDS011;29629;52.532;13.352;2023-01-15T02:15:53;101.88;;;53.97;;
41261;SDS011;29629;52.532;13.352;2023-01-15T02:18:26;88.18;;;50.83;;
41261;SDS011;29629;52.532;13.352;2023-01-15T02:20:56;85.97;;;48.97;;
41261;SDS011;29629;52.532;13.352;2023-01-15T02:23:30;95.03;;;52.17;;
41261;SDS011;29629;52.532;13.352;2023-01-15T02:26:12;94.20;;;53.22;;
41261;SDS011;29629;52.532;13.352;2023-01-15T02:29:03;96.72;;;51.72;;
41261;SDS011;29629;52.532;13.352;2023-01-15T02:31:35;96.75;;;55.58;;
41261;SDS011;29629;52.532;13.352;2023-01-15T02:34:04;92.85;;;52.13;;
41261;SDS011;29629;52.532;13.352;2023-01-15T02:36:36;105.43;;;55.58;;
41261;SDS011;29629;52.532;13.352;2023-01-15T02:39:08;101.40;;;54.35;;
41261;SDS011;29629;52.532;13.352;2023-01-15T02:41:38;92.88;;;52.30;;
41261;SDS011;29629;52.532;13.352;2023-01-15T02:44:11;90.22;;;51.80;;
41261;SDS011;29629;52.532;13.352;2023-01-15T02:46:42;96.30;;;53.67;;
41261;SDS011;29629;52.532;13.352;2023-01-15T02:49:11;88.18;;;51.20;;
41261;SDS011;29629;52.532;13.352;2023-01-15T02:51:41;93.25;;;53.08;;
41261;SDS011;29629;52.532;13.352;2023-01-15T02:54:12;96.65;;;54.35;;
41261;SDS011;29629;52.532;13.352;2023-01-15T02:56:43;89.45;;;51.53;;
41261;SDS011;29629;52.532;13.352;2023-01-15T02:59:16;87.47;;;50.90;;
41261;SDS011;29629;52.532;13.352;2023-01-15T03:01:47;88.53;;;50.90;;
41261;SDS011;29629;52.532;13.352;2023-01-15T03:04:19;86.82;;;50.47;;
41261;SDS011;29629;52.532;13.352;2023-01-15T03:06:54;85.75;;;50.92;;
41261;SDS011;29629;52.532;13.352;2023-01-15T03:09:26;89.18;;;51.58;;
41261;SDS011;29629;52.532;13.352;2023-01-15T03:11:57;86.55;;;51.08;;
41261;SDS011;29629;52.532;13.352;2023-01-15T03:14:31;88.68;;;51.28;;
41261;SDS011;29629;52.532;13.352;2023-01-15T03:17:04;88.07;;;50.90;;
41261;SDS011;29629;52.532;13.352;2023-01-15T03:19:40;93.60;;;52.88;;
41261;SDS011;29629;52.532;13.352;2023-01-15T03:22:15;86.63;;;50.30;;
41261;SDS011;29629;52.532;13.352;2023-01-15T03:24:48;92.85;;;52.65;;
41261;SDS011;29629;52.532;13.352;2023-01-15T03:27:17;95.22;;;54.20;;
41261;SDS011;29629;52.532;13.352;2023-01-15T03:29:46;102.20;;;56.10;;
41261;SDS011;29629;52.532;13.352;2023-01-15T03:32:17;99.47;;;56.00;;
41261;SDS011;29629;52.532;13.352;2023-01-15T03:34:45;93.40;;;52.60;;
41261;SDS011;29629;52.532;13.352;2023-01-15T03:37:15;93.72;;;53.20;;
41261;SDS011;29629;52.532;13.352;2023-01-15T03:39:42;100.57;;;55.03;;
41261;SDS011;29629;52.532;13.352;2023-01-15T03:42:13;89.38;;;51.78;;
41261;SDS011;29629;52.532;13.352;2023-01-15T03:44:48;86.75;;;50.83;;
41261;SDS011;29629;52.532;13.352;2023-01-15T03:47:32;85.50;;;50.35;;
41261;SDS011;29629;52.532;13.352;2023-01-15T03:50:09;90.90;;;52.45;;
41261;SDS011;29629;52.532;13.352;2023-01-15T03:52:43;83.60;;;49.80;;
41261;SDS011;29629;52.532;13.352;2023-01-15T03:55:14;80.03;;;49.10;;
41261;SDS011;29629;52.532;13.352;2023-01-15T03:57:45;77.10;;;47.58;;
41261;SDS011;29629;52.532;13.352;2023-01-15T04:00:17;78.15;;;48.08;;
41261;SDS011;29629;52.532;13.352;2023-01-15T04:02:50;70.47;;;45.47;;
41261;SDS011;29629;52.532;13.352;2023-01-15T04:05:19;69.00;;;45.10;;
41261;SDS011;29629;52.532;13.352;2023-01-15T04:07:48;70.53;;;45.92;;
41261;SDS011;29629;52.532;13.352;2023-01-15T04:10:16;85.57;;;50.20;;
41261;SDS011;29629;52.532;13.352;2023-01-15T04:12:44;75.10;;;46.72;;
41261;SDS011;29629;52.532;13.352;2023-01-15T04:15:12;71.43;;;45.42;;
41261;SDS011;29629;52.532;13.352;2023-01-15T04:17:40;78.10;;;47.92;;
41261;SDS011;29629;52.532;13.352;2023-01-15T04:20:07;71.55;;;45.95;;
41261;SDS011;29629;52.532;13.352;2023-01-15T04:22:35;73.75;;;46.20;;
41261;SDS011;29629;52.532;13.352;2023-01-15T04:25:02;68.13;;;44.60;;
41261;SDS011;29629;52.532;13.352;2023-01-15T04:27:30;70.78;;;45.17;;
41261;SDS011;29629;52.532;13.352;2023-01-15T04:29:57;75.20;;;47.03;;
41261;SDS011;29629;52.532;13.352;2023-01-15T04:32:24;67.15;;;44.38;;
41261;SDS011;29629;52.532;13.352;2023-01-15T04:34:52;76.53;;;47.00;;
41261;SDS011;29629;52.532;13.352;2023-01-15T04:37:19;80.10;;;48.13;;
41261;SDS011;29629;52.532;13.352;2023-01-15T04:39:46;76.35;;;46.85;;
41261;SDS011;29629;52.532;13.352;2023-01-15T04:42:13;70.88;;;45.17;;
41261;SDS011;29629;52.532;13.352;2023-01-15T04:44:58;74.53;;;46.45;;
41261;SDS011;29629;52.532;13.352;2023-01-15T04:47:25;70.78;;;45.13;;
41261;SDS011;29629;52.532;13.352;2023-01-15T04:49:56;91.05;;;50.50;;
41261;SDS011;29629;52.532;13.352;2023-01-15T04:52:23;75.32;;;46.78;;
41261;SDS011;29629;52.532;13.352;2023-01-15T04:54:49;73.60;;;46.15;;
41261;SDS011;29629;52.532;13.352;2023-01-15T04:57:19;79.97;;;47.72;;
41261;SDS011;29629;52.532;13.352;2023-01-15T04:59:45;79.13;;;47.50;;
41261;SDS011;29629;52.532;13.352;2023-01-15T05:02:12;77.75;;;47.55;;
41261;SDS011;29629;52.532;13.352;2023-01-15T05:04:39;80.97;;;48.58;;
41261;SDS011;29629;52.532;13.352;2023-01-15T05:07:08;75.78;;;46.88;;
41261;SDS011;29629;52.532;13.352;2023-01-15T05:09:35;70.35;;;45.25;;
41261;SDS011;29629;52.532;13.352;2023-01-15T05:12:02;72.82;;;45.83;;
41261;SDS011;29629;52.532;13.352;2023-01-15T05:14:29;76.28;;;46.70;;
41261;SDS011;29629;52.532;13.352;2023-01-15T05:16:56;77.88;;;47.20;;
41261;SDS011;29629;52.532;13.352;2023-01-15T05:19:23;74.43;;;46.47;;
41261;SDS011;29629;52.532;13.352;2023-01-15T05:21:50;81.70;;;48.42;;
41261;SDS011;29629;52.532;13.352;2023-01-15T05:26:51;83.88;;;51.00;;
41261;SDS011;29629;52.532;13.352;2023-01-15T05:29:19;82.90;;;50.08;;
41261;SDS011;29629;52.532;13.352;2023-01-15T05:31:46;90.72;;;53.17;;
41261;SDS011;29629;52.532;13.352;2023-01-15T05:34:13;81.18;;;49.30;;
41261;SDS011;29629;52.532;13.352;2023-01-15T05:36:40;92.82;;;53.58;;
41261;SDS011;29629;52.532;13.352;2023-01-15T05:39:07;81.20;;;50.65;;
41261;SDS011;29629;52.532;13.352;2023-01-15T05:41:34;81.82;;;50.42;;
41261;SDS011;29629;52.532;13.352;2023-01-15T05:44:16;85.40;;;51.10;;
41261;SDS011;29629;52.532;13.352;2023-01-15T05:46:45;86.38;;;51.28;;
41261;SDS011;29629;52.532;13.352;2023-01-15T05:49:14;86.85;;;50.88;;
41261;SDS011;29629;52.532;13.352;2023-01-15T05:51:43;91.05;;;52.97;;
41261;SDS011;29629;52.532;13.352;2023-01-15T05:54:11;88.15;;;52.33;;
41261;SDS011;29629;52.532;13.352;2023-01-15T05:56:40;89.80;;;52.65;;
41261;SDS011;29629;52.532;13.352;2023-01-15T05:59:07;76.40;;;47.58;;
41261;SDS011;29629;52.532;13.352;2023-01-15T06:01:36;74.28;;;47.78;;
41261;SDS011;29629;52.532;13.352;2023-01-15T06:04:04;79.65;;;48.25;;
41261;SDS011;29629;52.532;13.352;2023-01-15T06:06:32;80.75;;;49.10;;
41261;SDS011;29629;52.532;13.352;2023-01-15T06:09:00;79.32;;;49.42;;
41261;SDS011;29629;52.532;13.352;2023-01-15T06:11:28;76.13;;;48.17;;
41261;SDS011;29629;52.532;13.352;2023-01-15T06:13:55;77.40;;;48.55;;
41261;SDS011;29629;52.532;13.352;2023-01-15T06:16:22;80.80;;;49.67;;
41261;SDS011;29629;52.532;13.352;2023-01-15T06:18:50;84.25;;;50.65;;
41261;SDS011;29629;52.532;13.352;2023-01-15T06:21:17;74.63;;;48.00;;
41261;SDS011;29629;52.532;13.352;2023-01-15T06:23:45;90.43;;;52.58;;
41261;SDS011;29629;52.532;13.352;2023-01-15T06:26:12;83.45;;;50.33;;
41261;SDS011;29629;52.532;13.352;2023-01-15T06:28:40;91.88;;;52.58;;
41261;SDS011;29629;52.532;13.352;2023-01-15T06:31:08;86.18;;;50.63;;
41261;SDS011;29629;52.532;13.352;2023-01-15T06:33:36;80.40;;;49.30;;
41261;SDS011;29629;52.532;13.352;2023-01-15T06:36:05;77.95;;;48.88;;
41261;SDS011;29629;52.532;13.352;2023-01-15T06:38:35;93.90;;;53.75;;
41261;SDS011;29629;52.532;13.352;2023-01-15T06:41:03;100.43;;;56.55;;
41261;SDS011;29629;52.532;13.352;2023-01-15T06:43:52;93.15;;;53.38;;
41261;SDS011;29629;52.532;13.352;2023-01-15T06:46:42;96.28;;;54.08;;
41261;SDS011;29629;52.532;13.352;2023-01-15T06:49:27;95.07;;;53.58;;
41261;SDS011;29629;52.532;13.352;2023-01-15T06:51:55;96.55;;;55.08;;
41261;SDS011;29629;52.532;13.352;2023-01-15T06:54:22;96.43;;;54.25;;
41261;SDS011;29629;52.532;13.352;2023-01-15T06:56:49;97.18;;;54.60;;
41261;SDS011;29629;52.532;13.352;2023-01-15T06:59:16;89.22;;;52.33;;
41261;SDS011;29629;52.532;13.352;2023-01-15T07:01:43;97.78;;;55.42;;
41261;SDS011;29629;52.532;13.352;2023-01-15T07:04:10;94.13;;;54.30;;
41261;SDS011;29629;52.532;13.352;2023-01-15T07:06:37;90.65;;;52.45;;
41261;SDS011;29629;52.532;13.352;2023-01-15T07:09:06;99.95;;;56.08;;
41261;SDS011;29629;52.532;13.352;2023-01-15T07:11:33;101.28;;;56.75;;
41261;SDS011;29629;52.532;13.352;2023-01-15T07:14:00;102.38;;;57.00;;
41261;SDS011;29629;52.532;13.352;2023-01-15T07:16:33;96.97;;;54.92;;
41261;SDS011;29629;52.532;13.352;2023-01-15T07:19:00;107.95;;;60.47;;
41261;SDS011;29629;52.532;13.352;2023-01-15T07:21:28;110.72;;;60.25;;
41261;SDS011;29629;52.532;13.352;2023-01-15T07:23:57;107.10;;;58.95;;
41261;SDS011;29629;52.532;13.352;2023-01-15T07:26:26;104.70;;;58.15;;
41261;SDS011;29629;52.532;13.352;2023-01-15T07:28:53;101.47;;;55.20;;
41261;SDS011;29629;52.532;13.352;2023-01-15T07:31:20;105.35;;;59.30;;
41261;SDS011;29629;52.532;13.352;2023-01-15T07:33:47;101.18;;;56.47;;
41261;SDS011;29629;52.532;13.352;2023-01-15T07:36:14;92.78;;;53.63;;
41261;SDS011;29629;52.532;13.352;2023-01-15T07:38:41;110.30;;;60.00;;
41261;SDS011;29629;52.532;13.352;2023-01-15T07:41:08;111.22;;;61.83;;
41261;SDS011;29629;52.532;13.352;2023-01-15T07:43:53;107.05;;;59.53;;
41261;SDS011;29629;52.532;13.352;2023-01-15T07:46:38;97.07;;;55.53;;
41261;SDS011;29629;52.532;13.352;2023-01-15T07:49:22;104.88;;;59.33;;
41261;SDS011;29629;52.532;13.352;2023-01-15T07:52:06;102.28;;;56.47;;
41261;SDS011;29629;52.532;13.352;2023-01-15T07:54:33;120.90;;;65.40;;
41261;SDS011;29629;52.532;13.352;2023-01-15T07:57:00;107.75;;;61.05;;
41261;SDS011;29629;52.532;13.352;2023-01-15T07:59:29;112.82;;;62.13;;
41261;SDS011;29629;52.532;13.352;2023-01-15T08:01:56;105.88;;;60.28;;
41261;SDS011;29629;52.532;13.352;2023-01-15T08:04:23;105.93;;;59.70;;
41261;SDS011;29629;52.532;13.352;2023-01-15T08:06:50;108.13;;;60.35;;
41261;SDS011;29629;52.532;13.352;2023-01-15T08:09:17;105.68;;;59.60;;
41261;SDS011;29629;52.532;13.352;2023-01-15T08:11:43;104.38;;;57.65;;
41261;SDS011;29629;52.532;13.352;2023-01-15T08:14:29;104.05;;;57.92;;
41261;SDS011;29629;52.532;13.352;2023-01-15T08:17:14;96.73;;;55.50;;
41261;SDS011;29629;52.532;13.352;2023-01-15T08:19:40;106.90;;;58.25;;
41261;SDS011;29629;52.532;13.352;2023-01-15T08:22:08;108.10;;;60.65;;
41261;SDS011;29629;52.532;13.352;2023-01-15T08:24:35;107.80;;;58.03;;
41261;SDS011;29629;52.532;13.352;2023-01-15T08:27:02;104.22;;;57.05;;
41261;SDS011;29629;52.532;13.352;2023-01-15T08:29:31;104.18;;;57.15;;
41261;SDS011;29629;52.532;13.352;2023-01-15T08:31:59;98.03;;;54.35;;
41261;SDS011;29629;52.532;13.352;2023-01-15T08:34:26;98.55;;;55.35;;
41261;SDS011;29629;52.532;13.352;2023-01-15T08:36:53;101.75;;;57.25;;
41261;SDS011;29629;52.532;13.352;2023-01-15T08:39:24;111.05;;;59.95;;
41261;SDS011;29629;52.532;13.352;2023-01-15T08:41:51;102.70;;;57.65;;
41261;SDS011;29629;52.532;13.352;2023-01-15T08:44:18;96.60;;;53.83;;
41261;SDS011;29629;52.532;13.352;2023-01-15T08:46:49;104.68;;;58.42;;
41261;SDS011;29629;52.532;13.352;2023-01-15T08:49:17;99.82;;;56.78;;
41261;SDS011;29629;52.532;13.352;2023-01-15T08:51:45;111.70;;;61.45;;
41261;SDS011;29629;52.532;13.352;2023-01-15T08:54:15;107.63;;;59.28;;
41261;SDS011;29629;52.532;13.352;2023-01-15T08:56:43;108.30;;;59.55;;
41261;SDS011;29629;52.532;13.352;2023-01-15T08:59:10;109.47;;;59.45;;
41261;SDS011;29629;52.532;13.352;2023-01-15T09:01:37;106.25;;;58.90;;
41261;SDS011;29629;52.532;13.352;2023-01-15T09:04:06;113.57;;;64.40;;
41261;SDS011;29629;52.532;13.352;2023-01-15T09:06:34;110.47;;;61.30;;
41261;SDS011;29629;52.532;13.352;2023-01-15T09:09:01;109.18;;;59.70;;
41261;SDS011;29629;52.532;13.352;2023-01-15T09:11:28;100.47;;;57.28;;
41261;SDS011;29629;52.532;13.352;2023-01-15T09:13:55;109.07;;;61.20;;
41261;SDS011;29629;52.532;13.352;2023-01-15T09:16:22;112.65;;;64.70;;
41261;SDS011;29629;52.532;13.352;2023-01-15T09:18:50;113.38;;;63.15;;
41261;SDS011;29629;52.532;13.352;2023-01-15T09:21:19;117.22;;;63.88;;
41261;SDS011;29629;52.532;13.352;2023-01-15T09:23:46;114.63;;;62.65;;
41261;SDS011;29629;52.532;13.352;2023-01-15T09:26:20;112.22;;;62.92;;
41261;SDS011;29629;52.532;13.352;2023-01-15T09:28:52;112.65;;;64.47;;
41261;SDS011;29629;52.532;13.352;2023-01-15T09:31:19;108.32;;;62.33;;
41261;SDS011;29629;52.532;13.352;2023-01-15T09:33:46;119.18;;;64.75;;
41261;SDS011;29629;52.532;13.352;2023-01-15T09:36:16;111.13;;;62.17;;
41261;SDS011;29629;52.532;13.352;2023-01-15T09:38:45;116.95;;;61.22;;
41261;SDS011;29629;52.532;13.352;2023-01-15T09:41:12;104.93;;;58.28;;
41261;SDS011;29629;52.532;13.352;2023-01-15T09:43:55;103.03;;;57.75;;
41261;SDS011;29629;52.532;13.352;2023-01-15T09:46:28;103.05;;;58.15;;
41261;SDS011;29629;52.532;13.352;2023-01-15T09:49:03;109.38;;;62.30;;
41261;SDS011;29629;52.532;13.352;2023-01-15T09:51:38;111.03;;;62.65;;
41261;SDS011;29629;52.532;13.352;2023-01-15T09:54:19;100.47;;;57.65;;
41261;SDS011;29629;52.532;13.352;2023-01-15T09:56:58;106.80;;;60.63;;
41261;SDS011;29629;52.532;13.352;2023-01-15T09:59:28;110.13;;;61.97;;
41261;SDS011;29629;52.532;13.352;2023-01-15T10:01:57;114.15;;;62.47;;
41261;SDS011;29629;52.532;13.352;2023-01-15T10:04:30;108.57;;;59.85;;
41261;SDS011;29629;52.532;13.352;2023-01-15T10:07:03;128.57;;;66.80;;
41261;SDS011;29629;52.532;13.352;2023-01-15T10:09:38;116.00;;;65.03;;
41261;SDS011;29629;52.532;13.352;2023-01-15T10:12:15;119.22;;;64.47;;
41261;SDS011;29629;52.532;13.352;2023-01-15T10:15:04;113.18;;;64.18;;
41261;SDS011;29629;52.532;13.352;2023-01-15T10:17:40;107.82;;;58.17;;
41261;SDS011;29629;52.532;13.352;2023-01-15T10:20:12;121.20;;;64.32;;
41261;SDS011;29629;52.532;13.352;2023-01-15T10:22:48;119.97;;;63.55;;
41261;SDS011;29629;52.532;13.352;2023-01-15T10:28:01;130.88;;;64.63;;
41261;SDS011;29629;52.532;13.352;2023-01-15T10:30:37;105.82;;;57.85;;
41261;SDS011;29629;52.532;13.352;2023-01-15T10:33:14;130.75;;;68.10;;
41261;SDS011;29629;52.532;13.352;2023-01-15T10:35:56;127.20;;;65.25;;
41261;SDS011;29629;52.532;13.352;2023-01-15T10:38:29;103.78;;;57.50;;
41261;SDS011;29629;52.532;13.352;2023-01-15T10:44:03;99.13;;;56.53;;
41261;SDS011;29629;52.532;13.352;2023-01-15T10:46:35;109.43;;;59.85;;
41261;SDS011;29629;52.532;13.352;2023-01-15T10:49:05;112.13;;;60.38;;
41261;SDS011;29629;52.532;13.352;2023-01-15T10:51:40;115.60;;;60.25;;
41261;SDS011;29629;52.532;13.352;2023-01-15T10:54:11;126.55;;;63.30;;
41261;SDS011;29629;52.532;13.352;2023-01-15T10:56:47;103.78;;;57.42;;
41261;SDS011;29629;52.532;13.352;2023-01-15T10:59:29;111.95;;;62.85;;
41261;SDS011;29629;52.532;13.352;2023-01-15T11:02:00;118.25;;;64.45;;
41261;SDS011;29629;52.532;13.352;2023-01-15T11:04:30;109.18;;;59.95;;
41261;SDS011;29629;52.532;13.352;2023-01-15T11:06:57;101.25;;;57.35;;
41261;SDS011;29629;52.532;13.352;2023-01-15T11:09:25;104.60;;;56.95;;
41261;SDS011;29629;52.532;13.352;2023-01-15T11:12:02;112.65;;;60.72;;
41261;SDS011;29629;52.532;13.352;2023-01-15T11:14:54;105.55;;;57.55;;
41261;SDS011;29629;52.532;13.352;2023-01-15T11:17:40;114.20;;;59.97;;
41261;SDS011;29629;52.532;13.352;2023-01-15T11:20:27;91.63;;;52.33;;
41261;SDS011;29629;52.532;13.352;2023-01-15T11:23:05;103.72;;;56.42;;
41261;SDS011;29629;52.532;13.352;2023-01-15T11:25:34;85.32;;;49.47;;
41261;SDS011;29629;52.532;13.352;2023-01-15T11:28:06;94.80;;;52.67;;
41261;SDS011;29629;52.532;13.352;2023-01-15T11:30:34;96.05;;;53.20;;
41261;SDS011;29629;52.532;13.352;2023-01-15T11:33:03;96.90;;;53.88;;
41261;SDS011;29629;52.532;13.352;2023-01-15T11:35:32;101.30;;;54.83;;
41261;SDS011;29629;52.532;13.352;2023-01-15T11:38:00;103.53;;;54.13;;
41261;SDS011;29629;52.532;13.352;2023-01-15T11:40:31;100.88;;;54.50;;
41261;SDS011;29629;52.532;13.352;2023-01-15T11:42:58;94.63;;;53.00;;
41261;SDS011;29629;52.532;13.352;2023-01-15T11:45:47;107.75;;;58.33;;
41261;SDS011;29629;52.532;13.352;2023-01-15T11:48:34;108.18;;;58.10;;
41261;SDS011;29629;52.532;13.352;2023-01-15T11:51:26;102.32;;;55.35;;
41261;SDS011;29629;52.532;13.352;2023-01-15T11:53:56;105.30;;;57.63;;
41261;SDS011;29629;52.532;13.352;2023-01-15T11:56:27;97.80;;;53.75;;
41261;SDS011;29629;52.532;13.352;2023-01-15T11:58:57;87.47;;;50.40;;
41261;SDS011;29629;52.532;13.352;2023-01-15T12:01:29;91.68;;;51.60;;
41261;SDS011;29629;52.532;13.352;2023-01-15T12:03:59;97.07;;;53.72;;
41261;SDS011;29629;52.532;13.352;2023-01-15T12:06:30;99.60;;;54.75;;
41261;SDS011;29629;52.532;13.352;2023-01-15T12:09:00;95.82;;;52.78;;
41261;SDS011;29629;52.532;13.352;2023-01-15T12:11:44;91.10;;;51.67;;
41261;SDS011;29629;52.532;13.352;2023-01-15T12:14:30;96.55;;;53.45;;
41261;SDS011;29629;52.532;13.352;2023-01-15T12:17:23;91.03;;;52.33;;
41261;SDS011;29629;52.532;13.352;2023-01-15T12:20:00;102.22;;;56.42;;
41261;SDS011;29629;52.532;13.352;2023-01-15T12:22:44;101.32;;;55.13;;
41261;SDS011;29629;52.532;13.352;2023-01-15T12:25:32;112.15;;;57.47;;
41261;SDS011;29629;52.532;13.352;2023-01-15T12:28:09;112.13;;;58.08;;
41261;SDS011;29629;52.532;13.352;2023-01-15T12:30:42;94.25;;;52.55;;
41261;SDS011;29629;52.532;13.352;2023-01-15T12:33:17;94.63;;;52.67;;
41261;SDS011;29629;52.532;13.352;2023-01-15T12:35:51;102.10;;;55.50;;
41261;SDS011;29629;52.532;13.352;2023-01-15T12:38:25;98.13;;;53.97;;
41261;SDS011;29629;52.532;13.352;2023-01-15T12:41:01;98.43;;;53.58;;
41261;SDS011;29629;52.532;13.352;2023-01-15T12:43:34;95.55;;;52.90;;
41261;SDS011;29629;52.532;13.352;2023-01-15T12:46:20;111.78;;;61.60;;
41261;SDS011;29629;52.532;13.352;2023-01-15T12:48:56;105.10;;;56.63;;
41261;SDS011;29629;52.532;13.352;2023-01-15T12:51:29;103.45;;;55.70;;
41261;SDS011;29629;52.532;13.352;2023-01-15T12:54:00;99.50;;;54.25;;
41261;SDS011;29629;52.532;13.352;2023-01-15T12:56:34;96.88;;;53.47;;
41261;SDS011;29629;52.532;13.352;2023-01-15T12:59:09;92.38;;;52.13;;
41261;SDS011;29629;52.532;13.352;2023-01-15T13:01:43;107.82;;;57.67;;
41261;SDS011;29629;52.532;13.352;2023-01-15T13:04:19;106.13;;;58.60;;
41261;SDS011;29629;52.532;13.352;2023-01-15T13:06:51;106.70;;;58.03;;
41261;SDS011;29629;52.532;13.352;2023-01-15T13:09:27;102.03;;;55.30;;
41261;SDS011;29629;52.532;13.352;2023-01-15T13:12:06;102.60;;;56.00;;
41261;SDS011;29629;52.532;13.352;2023-01-15T13:14:37;104.88;;;56.38;;
41261;SDS011;29629;52.532;13.352;2023-01-15T13:17:04;100.40;;;55.17;;
41261;SDS011;29629;52.532;13.352;2023-01-15T13:19:41;99.22;;;54.25;;
41261;SDS011;29629;52.532;13.352;2023-01-15T13:22:16;101.05;;;56.45;;
41261;SDS011;29629;52.532;13.352;2023-01-15T13:24:53;101.07;;;54.58;;
41261;SDS011;29629;52.532;13.352;2023-01-15T13:27:44;101.53;;;55.00;;
41261;SDS011;29629;52.532;13.352;2023-01-15T13:30:25;102.05;;;55.03;;
41261;SDS011;29629;52.532;13.352;2023-01-15T13:33:12;113.03;;;60.03;;
41261;SDS011;29629;52.532;13.352;2023-01-15T13:35:50;103.47;;;56.90;;
41261;SDS011;29629;52.532;13.352;2023-01-15T13:38:20;99.20;;;54.97;;
41261;SDS011;29629;52.532;13.352;2023-01-15T13:40:51;106.22;;;57.55;;
41261;SDS011;29629;52.532;13.352;2023-01-15T13:43:26;118.13;;;61.45;;
41261;SDS011;29629;52.532;13.352;2023-01-15T13:45:58;106.68;;;58.53;;
41261;SDS011;29629;52.532;13.352;2023-01-15T13:48:28;101.68;;;54.78;;
41261;SDS011;29629;52.532;13.352;2023-01-15T13:50:59;101.55;;;55.95;;
41261;SDS011;29629;52.532;13.352;2023-01-15T13:53:29;100.97;;;56.00;;
41261;SDS011;29629;52.532;13.352;2023-01-15T13:55:59;104.68;;;57.10;;
41261;SDS011;29629;52.532;13.352;2023-01-15T13:58:30;108.38;;;58.47;;
41261;SDS011;29629;52.532;13.352;2023-01-15T14:01:02;91.90;;;52.30;;
41261;SDS011;29629;52.532;13.352;2023-01-15T14:03:31;95.82;;;52.95;;
41261;SDS011;29629;52.532;13.352;2023-01-15T14:06:03;96.68;;;53.00;;
41261;SDS011;29629;52.532;13.352;2023-01-15T14:08:39;104.13;;;56.67;;
41261;SDS011;29629;52.532;13.352;2023-01-15T14:11:33;93.85;;;52.50;;
41261;SDS011;29629;52.532;13.352;2023-01-15T14:14:10;99.22;;;53.70;;
41261;SDS011;29629;52.532;13.352;2023-01-15T14:16:55;99.07;;;54.10;;
41261;SDS011;29629;52.532;13.352;2023-01-15T14:19:30;101.95;;;58.13;;
41261;SDS011;29629;52.532;13.352;2023-01-15T14:22:14;101.32;;;55.00;;
41261;SDS011;29629;52.532;13.352;2023-01-15T14:25:16;101.88;;;59.53;;
41261;SDS011;29629;52.532;13.352;2023-01-15T14:28:03;98.57;;;53.88;;
41261;SDS011;29629;52.532;13.352;2023-01-15T14:33:41;99.78;;;54.92;;
41261;SDS011;29629;52.532;13.352;2023-01-15T14:36:16;100.28;;;55.15;;
41261;SDS011;29629;52.532;13.352;2023-01-15T14:38:47;97.13;;;53.15;;
41261;SDS011;29629;52.532;13.352;2023-01-15T14:41:23;109.07;;;60.58;;